sensor_id;sensor_type;location;lat;lon;timestamp;temperature;humidity
78448;SHT31;67742;51.972;5.682;2023-03-14T00:01:43;14.7;63.8
78448;SHT31;67742;51.972;5.682;2023-03-14T00:04:16;14.7;65.1
78448;SHT31;67742;51.972;5.682;2023-03-14T00:06:45;14.7;65.9
78448;SHT31;67742;51.972;5.682;2023-03-14T00:09:20;14.7;66.1
78448;SHT31;67742;51.972;5.682;2023-03-14T00:11:50;14.6;66.8
78448;SHT31;67742;51.972;5.682;2023-03-14T00:14:19;14.5;66.6
78448;SHT31;67742;51.972;5.682;2023-03-14T00:16:53;14.5;66.8
78448;SHT31;67742;51.972;5.682;2023-03-14T00:19:23;14.4;67.0
78448;SHT31;67742;51.972;5.682;2023-03-14T00:21:56;14.4;66.8
78448;SHT31;67742;51.972;5.682;2023-03-14T00:24:27;14.4;66.7
78448;SHT31;67742;51.972;5.682;2023-03-14T00:26:57;14.3;66.3
78448;SHT31;67742;51.972;5.682;2023-03-14T00:29:28;14.3;66.3
78448;SHT31;67742;51.972;5.682;2023-03-14T00:31:58;14.3;66.4
78448;SHT31;67742;51.972;5.682;2023-03-14T00:34:33;14.3;66.7
78448;SHT31;67742;51.972;5.682;2023-03-14T00:37:04;14.3;66.2
78448;SHT31;67742;51.972;5.682;2023-03-14T00:39:34;14.3;66.2
78448;SHT31;67742;51.972;5.682;2023-03-14T00:42:06;14.2;66.3
78448;SHT31;67742;51.972;5.682;2023-03-14T00:44:37;14.2;66.1
78448;SHT31;67742;51.972;5.682;2023-03-14T00:47:09;14.2;66.0
78448;SHT31;67742;51.972;5.682;2023-03-14T00:49:38;14.1;65.5
78448;SHT31;67742;51.972;5.682;2023-03-14T00:52:10;14.1;64.8
78448;SHT31;67742;51.972;5.682;2023-03-14T00:54:40;14.1;64.6
78448;SHT31;67742;51.972;5.682;2023-03-14T00:57:10;14.0;64.6
78448;SHT31;67742;51.972;5.682;2023-03-14T00:59:41;13.9;63.5
78448;SHT31;67742;51.972;5.682;2023-03-14T01:02:11;13.9;63.8
78448;SHT31;67742;51.972;5.682;2023-03-14T01:04:47;13.8;63.7
78448;SHT31;67742;51.972;5.682;2023-03-14T01:07:17;13.7;63.7
78448;SHT31;67742;51.972;5.682;2023-03-14T01:09:51;13.6;63.5
78448;SHT31;67742;51.972;5.682;2023-03-14T01:12:23;13.6;63.8
78448;SHT31;67742;51.972;5.682;2023-03-14T01:14:55;13.5;64.4
78448;SHT31;67742;51.972;5.682;2023-03-14T01:17:32;13.5;64.3
78448;SHT31;67742;51.972;5.682;2023-03-14T01:20:06;13.5;64.6
78448;SHT31;67742;51.972;5.682;2023-03-14T01:22:39;13.4;65.0
78448;SHT31;67742;51.972;5.682;2023-03-14T01:25:17;13.4;65.2
78448;SHT31;67742;51.972;5.682;2023-03-14T01:28:00;13.4;65.4
78448;SHT31;67742;51.972;5.682;2023-03-14T01:30:33;13.4;66.0
78448;SHT31;67742;51.972;5.682;2023-03-14T01:33:03;13.4;66.0
78448;SHT31;67742;51.972;5.682;2023-03-14T01:35:37;13.3;65.9
78448;SHT31;67742;51.972;5.682;2023-03-14T01:38:13;13.3;65.6
78448;SHT31;67742;51.972;5.682;2023-03-14T01:40:48;13.2;66.1
78448;SHT31;67742;51.972;5.682;2023-03-14T01:43:20;13.2;65.9
78448;SHT31;67742;51.972;5.682;2023-03-14T01:47:43;13.1;66.1
78448;SHT31;67742;51.972;5.682;2023-03-14T01:50:33;13.1;66.1
78448;SHT31;67742;51.972;5.682;2023-03-14T01:53:05;13.0;66.3
78448;SHT31;67742;51.972;5.682;2023-03-14T01:55:45;13.0;66.9
78448;SHT31;67742;51.972;5.682;2023-03-14T01:58:24;13.0;67.3
78448;SHT31;67742;51.972;5.682;2023-03-14T02:00:58;12.9;68.2
78448;SHT31;67742;51.972;5.682;2023-03-14T02:03:41;12.9;68.3
78448;SHT31;67742;51.972;5.682;2023-03-14T02:06:19;12.9;68.7
78448;SHT31;67742;51.972;5.682;2023-03-14T02:09:39;12.9;68.8
78448;SHT31;67742;51.972;5.682;2023-03-14T02:12:12;12.9;68.4
78448;SHT31;67742;51.972;5.682;2023-03-14T02:14:44;12.9;68.9
78448;SHT31;67742;51.972;5.682;2023-03-14T02:17:18;12.9;69.0
78448;SHT31;67742;51.972;5.682;2023-03-14T02:20:00;12.9;68.9
78448;SHT31;67742;51.972;5.682;2023-03-14T02:22:33;12.9;69.4
78448;SHT31;67742;51.972;5.682;2023-03-14T02:25:08;12.8;69.5
78448;SHT31;67742;51.972;5.682;2023-03-14T02:27:40;12.8;69.5
78448;SHT31;67742;51.972;5.682;2023-03-14T02:30:15;12.8;69.3
78448;SHT31;67742;51.972;5.682;2023-03-14T02:32:47;12.8;69.3
78448;SHT31;67742;51.972;5.682;2023-03-14T02:35:23;12.8;69.4
78448;SHT31;67742;51.972;5.682;2023-03-14T02:37:59;12.8;69.6
78448;SHT31;67742;51.972;5.682;2023-03-14T02:40:32;12.8;69.6
78448;SHT31;67742;51.972;5.682;2023-03-14T02:43:03;12.8;69.1
78448;SHT31;67742;51.972;5.682;2023-03-14T02:45:41;12.8;69.5
78448;SHT31;67742;51.972;5.682;2023-03-14T02:48:16;12.8;69.5
78448;SHT31;67742;51.972;5.682;2023-03-14T02:50:51;12.8;69.1
78448;SHT31;67742;51.972;5.682;2023-03-14T02:53:25;12.9;68.7
78448;SHT31;67742;51.972;5.682;2023-03-14T02:55:57;12.9;68.8
78448;SHT31;67742;51.972;5.682;2023-03-14T02:58:28;12.9;68.8
78448;SHT31;67742;51.972;5.682;2023-03-14T03:01:02;12.9;68.4
78448;SHT31;67742;51.972;5.682;2023-03-14T03:03:32;13.0;68.1
78448;SHT31;67742;51.972;5.682;2023-03-14T03:06:05;13.0;67.9
78448;SHT31;67742;51.972;5.682;2023-03-14T03:08:35;13.0;67.7
78448;SHT31;67742;51.972;5.682;2023-03-14T03:11:18;13.0;67.8
78448;SHT31;67742;51.972;5.682;2023-03-14T03:13:49;13.0;67.7
78448;SHT31;67742;51.972;5.682;2023-03-14T03:16:19;13.0;67.5
78448;SHT31;67742;51.972;5.682;2023-03-14T03:18:51;13.0;67.6
78448;SHT31;67742;51.972;5.682;2023-03-14T03:21:25;13.0;67.4
78448;SHT31;67742;51.972;5.682;2023-03-14T03:23:55;13.0;67.5
78448;SHT31;67742;51.972;5.682;2023-03-14T03:26:24;13.0;67.3
78448;SHT31;67742;51.972;5.682;2023-03-14T03:28:56;13.0;67.3
78448;SHT31;67742;51.972;5.682;2023-03-14T03:31:30;13.0;67.1
78448;SHT31;67742;51.972;5.682;2023-03-14T03:34:00;13.0;67.2
78448;SHT31;67742;51.972;5.682;2023-03-14T03:36:30;13.0;67.1
78448;SHT31;67742;51.972;5.682;2023-03-14T03:39:05;13.0;67.0
78448;SHT31;67742;51.972;5.682;2023-03-14T03:41:37;13.0;67.2
78448;SHT31;67742;51.972;5.682;2023-03-14T03:44:08;12.9;66.9
78448;SHT31;67742;51.972;5.682;2023-03-14T03:46:41;12.9;67.1
78448;SHT31;67742;51.972;5.682;2023-03-14T03:49:20;12.9;67.2
78448;SHT31;67742;51.972;5.682;2023-03-14T03:51:50;12.9;67.4
78448;SHT31;67742;51.972;5.682;2023-03-14T03:54:22;12.9;67.3
78448;SHT31;67742;51.972;5.682;2023-03-14T03:56:57;12.9;67.1
78448;SHT31;67742;51.972;5.682;2023-03-14T03:59:35;12.9;67.2
78448;SHT31;67742;51.972;5.682;2023-03-14T04:02:08;12.8;67.2
78448;SHT31;67742;51.972;5.682;2023-03-14T04:04:43;12.8;67.2
78448;SHT31;67742;51.972;5.682;2023-03-14T04:07:33;12.8;67.3
78448;SHT31;67742;51.972;5.682;2023-03-14T04:10:03;12.8;67.0
78448;SHT31;67742;51.972;5.682;2023-03-14T04:12:38;12.8;67.2
78448;SHT31;67742;51.972;5.682;2023-03-14T04:15:11;12.8;67.1
78448;SHT31;67742;51.972;5.682;2023-03-14T04:17:41;12.8;67.1
78448;SHT31;67742;51.972;5.682;2023-03-14T04:20:19;12.9;67.0
78448;SHT31;67742;51.972;5.682;2023-03-14T04:23:07;12.9;66.5
78448;SHT31;67742;51.972;5.682;2023-03-14T04:25:39;12.9;66.4
78448;SHT31;67742;51.972;5.682;2023-03-14T04:28:11;12.8;66.7
78448;SHT31;67742;51.972;5.682;2023-03-14T04:30:44;12.8;66.7
78448;SHT31;67742;51.972;5.682;2023-03-14T04:35:19;12.8;66.9
78448;SHT31;67742;51.972;5.682;2023-03-14T04:37:51;12.8;67.0
78448;SHT31;67742;51.972;5.682;2023-03-14T04:40:26;12.8;67.0
78448;SHT31;67742;51.972;5.682;2023-03-14T04:44:57;12.8;67.2
78448;SHT31;67742;51.972;5.682;2023-03-14T04:47:30;12.8;66.9
78448;SHT31;67742;51.972;5.682;2023-03-14T04:50:02;12.8;66.9
78448;SHT31;67742;51.972;5.682;2023-03-14T04:52:45;12.8;66.9
78448;SHT31;67742;51.972;5.682;2023-03-14T04:55:16;12.8;66.5
78448;SHT31;67742;51.972;5.682;2023-03-14T04:57:47;12.8;66.6
78448;SHT31;67742;51.972;5.682;2023-03-14T05:00:23;12.8;66.7
78448;SHT31;67742;51.972;5.682;2023-03-14T05:02:57;12.8;66.9
78448;SHT31;67742;51.972;5.682;2023-03-14T05:05:30;12.8;66.7
78448;SHT31;67742;51.972;5.682;2023-03-14T05:08:06;12.8;66.6
78448;SHT31;67742;51.972;5.682;2023-03-14T05:10:38;12.8;66.8
78448;SHT31;67742;51.972;5.682;2023-03-14T05:13:10;12.8;67.0
78448;SHT31;67742;51.972;5.682;2023-03-14T05:15:41;12.8;67.0
78448;SHT31;67742;51.972;5.682;2023-03-14T05:18:34;12.8;67.1
78448;SHT31;67742;51.972;5.682;2023-03-14T05:23:15;12.8;67.1
78448;SHT31;67742;51.972;5.682;2023-03-14T05:25:45;12.8;67.2
78448;SHT31;67742;51.972;5.682;2023-03-14T05:28:17;12.8;67.3
78448;SHT31;67742;51.972;5.682;2023-03-14T05:31:17;12.8;67.3
78448;SHT31;67742;51.972;5.682;2023-03-14T05:33:50;12.8;67.3
78448;SHT31;67742;51.972;5.682;2023-03-14T05:36:27;12.8;67.6
78448;SHT31;67742;51.972;5.682;2023-03-14T05:38:57;12.8;67.7
78448;SHT31;67742;51.972;5.682;2023-03-14T05:41:32;12.8;67.7
78448;SHT31;67742;51.972;5.682;2023-03-14T05:44:16;12.8;67.7
78448;SHT31;67742;51.972;5.682;2023-03-14T05:46:56;12.8;67.9
78448;SHT31;67742;51.972;5.682;2023-03-14T05:49:36;12.7;68.2
78448;SHT31;67742;51.972;5.682;2023-03-14T05:52:18;12.7;68.7
78448;SHT31;67742;51.972;5.682;2023-03-14T05:54:53;12.7;68.5
78448;SHT31;67742;51.972;5.682;2023-03-14T05:57:30;12.7;68.7
78448;SHT31;67742;51.972;5.682;2023-03-14T06:00:02;12.7;68.8
78448;SHT31;67742;51.972;5.682;2023-03-14T06:02:32;12.7;68.8
78448;SHT31;67742;51.972;5.682;2023-03-14T06:05:03;12.7;69.2
78448;SHT31;67742;51.972;5.682;2023-03-14T06:07:50;12.7;69.0
78448;SHT31;67742;51.972;5.682;2023-03-14T06:10:26;12.7;69.0
78448;SHT31;67742;51.972;5.682;2023-03-14T06:12:57;12.7;69.2
78448;SHT31;67742;51.972;5.682;2023-03-14T06:15:28;12.7;69.3
78448;SHT31;67742;51.972;5.682;2023-03-14T06:18:00;12.7;69.6
78448;SHT31;67742;51.972;5.682;2023-03-14T06:20:29;12.7;69.4
78448;SHT31;67742;51.972;5.682;2023-03-14T06:23:00;12.7;69.7
78448;SHT31;67742;51.972;5.682;2023-03-14T06:25:30;12.7;69.6
78448;SHT31;67742;51.972;5.682;2023-03-14T06:28:04;12.7;69.9
78448;SHT31;67742;51.972;5.682;2023-03-14T06:30:36;12.7;70.1
78448;SHT31;67742;51.972;5.682;2023-03-14T06:33:07;12.7;70.2
78448;SHT31;67742;51.972;5.682;2023-03-14T06:35:40;12.7;70.1
78448;SHT31;67742;51.972;5.682;2023-03-14T06:38:10;12.7;70.5
78448;SHT31;67742;51.972;5.682;2023-03-14T06:40:40;12.7;70.7
78448;SHT31;67742;51.972;5.682;2023-03-14T06:43:10;12.6;70.7
78448;SHT31;67742;51.972;5.682;2023-03-14T06:45:42;12.6;70.9
78448;SHT31;67742;51.972;5.682;2023-03-14T06:48:12;12.6;71.1
78448;SHT31;67742;51.972;5.682;2023-03-14T06:50:42;12.7;71.1
78448;SHT31;67742;51.972;5.682;2023-03-14T06:53:13;12.7;70.7
78448;SHT31;67742;51.972;5.682;2023-03-14T06:55:43;12.7;71.1
78448;SHT31;67742;51.972;5.682;2023-03-14T06:58:16;12.7;71.0
78448;SHT31;67742;51.972;5.682;2023-03-14T07:00:52;12.7;71.2
78448;SHT31;67742;51.972;5.682;2023-03-14T07:03:22;12.7;71.4
78448;SHT31;67742;51.972;5.682;2023-03-14T07:05:52;12.7;71.7
78448;SHT31;67742;51.972;5.682;2023-03-14T07:08:22;12.7;71.5
78448;SHT31;67742;51.972;5.682;2023-03-14T07:10:52;12.7;71.6
78448;SHT31;67742;51.972;5.682;2023-03-14T07:13:23;12.7;69.7
78448;SHT31;67742;51.972;5.682;2023-03-14T07:15:53;12.6;67.9
78448;SHT31;67742;51.972;5.682;2023-03-14T07:18:23;12.6;67.3
78448;SHT31;67742;51.972;5.682;2023-03-14T07:20:53;12.5;64.9
78448;SHT31;67742;51.972;5.682;2023-03-14T07:23:24;12.3;64.5
78448;SHT31;67742;51.972;5.682;2023-03-14T07:25:54;12.1;64.4
78448;SHT31;67742;51.972;5.682;2023-03-14T07:28:24;11.9;65.3
78448;SHT31;67742;51.972;5.682;2023-03-14T07:30:58;11.8;65.5
78448;SHT31;67742;51.972;5.682;2023-03-14T07:33:30;11.7;66.5
78448;SHT31;67742;51.972;5.682;2023-03-14T07:36:00;11.6;66.6
78448;SHT31;67742;51.972;5.682;2023-03-14T07:38:30;11.5;67.0
78448;SHT31;67742;51.972;5.682;2023-03-14T07:41:01;11.4;67.4
78448;SHT31;67742;51.972;5.682;2023-03-14T07:43:33;11.4;68.0
78448;SHT31;67742;51.972;5.682;2023-03-14T07:46:22;11.3;68.7
78448;SHT31;67742;51.972;5.682;2023-03-14T07:48:52;11.3;68.6
78448;SHT31;67742;51.972;5.682;2023-03-14T07:51:26;11.3;68.8
78448;SHT31;67742;51.972;5.682;2023-03-14T07:53:56;11.3;69.1
78448;SHT31;67742;51.972;5.682;2023-03-14T07:56:26;11.3;69.6
78448;SHT31;67742;51.972;5.682;2023-03-14T07:58:57;11.3;69.8
78448;SHT31;67742;51.972;5.682;2023-03-14T08:01:28;11.4;69.5
78448;SHT31;67742;51.972;5.682;2023-03-14T08:04:00;11.4;68.7
78448;SHT31;67742;51.972;5.682;2023-03-14T08:06:30;11.4;68.8
78448;SHT31;67742;51.972;5.682;2023-03-14T08:09:01;11.4;68.7
78448;SHT31;67742;51.972;5.682;2023-03-14T08:11:34;11.4;68.4
78448;SHT31;67742;51.972;5.682;2023-03-14T08:14:04;11.4;68.4
78448;SHT31;67742;51.972;5.682;2023-03-14T08:16:39;11.4;67.9
78448;SHT31;67742;51.972;5.682;2023-03-14T08:19:10;11.3;67.2
78448;SHT31;67742;51.972;5.682;2023-03-14T08:21:40;11.3;66.3
78448;SHT31;67742;51.972;5.682;2023-03-14T08:24:12;11.2;67.3
78448;SHT31;67742;51.972;5.682;2023-03-14T08:26:43;11.1;67.2
78448;SHT31;67742;51.972;5.682;2023-03-14T08:29:15;11.0;67.2
78448;SHT31;67742;51.972;5.682;2023-03-14T08:31:47;10.9;66.9
78448;SHT31;67742;51.972;5.682;2023-03-14T08:34:19;10.8;67.1
78448;SHT31;67742;51.972;5.682;2023-03-14T08:36:51;10.7;67.5
78448;SHT31;67742;51.972;5.682;2023-03-14T08:39:24;10.5;65.0
78448;SHT31;67742;51.972;5.682;2023-03-14T08:41:55;10.4;64.8
78448;SHT31;67742;51.972;5.682;2023-03-14T08:44:24;10.3;63.8
78448;SHT31;67742;51.972;5.682;2023-03-14T08:46:55;10.1;64.7
78448;SHT31;67742;51.972;5.682;2023-03-14T08:49:26;10.0;64.7
78448;SHT31;67742;51.972;5.682;2023-03-14T08:51:57;9.9;65.4
78448;SHT31;67742;51.972;5.682;2023-03-14T08:54:28;9.8;65.7
78448;SHT31;67742;51.972;5.682;2023-03-14T08:56:59;9.7;66.4
78448;SHT31;67742;51.972;5.682;2023-03-14T08:59:31;9.6;66.9
78448;SHT31;67742;51.972;5.682;2023-03-14T09:02:05;9.5;67.4
78448;SHT31;67742;51.972;5.682;2023-03-14T09:04:39;9.5;68.4
78448;SHT31;67742;51.972;5.682;2023-03-14T09:07:11;9.4;67.9
78448;SHT31;67742;51.972;5.682;2023-03-14T09:09:42;9.3;67.8
78448;SHT31;67742;51.972;5.682;2023-03-14T09:12:12;9.3;67.3
78448;SHT31;67742;51.972;5.682;2023-03-14T09:14:43;9.2;68.7
78448;SHT31;67742;51.972;5.682;2023-03-14T09:17:28;9.1;68.8
78448;SHT31;67742;51.972;5.682;2023-03-14T09:20:00;9.1;67.8
78448;SHT31;67742;51.972;5.682;2023-03-14T09:22:33;9.0;68.2
78448;SHT31;67742;51.972;5.682;2023-03-14T09:25:09;9.0;67.4
78448;SHT31;67742;51.972;5.682;2023-03-14T09:27:40;9.0;66.9
78448;SHT31;67742;51.972;5.682;2023-03-14T09:30:12;9.0;67.1
78448;SHT31;67742;51.972;5.682;2023-03-14T09:32:42;9.0;67.0
78448;SHT31;67742;51.972;5.682;2023-03-14T09:35:14;9.0;67.5
78448;SHT31;67742;51.972;5.682;2023-03-14T09:37:45;9.0;67.2
78448;SHT31;67742;51.972;5.682;2023-03-14T09:40:18;9.0;66.8
78448;SHT31;67742;51.972;5.682;2023-03-14T09:42:53;9.0;66.2
78448;SHT31;67742;51.972;5.682;2023-03-14T09:45:32;9.1;66.3
78448;SHT31;67742;51.972;5.682;2023-03-14T09:48:16;9.1;64.4
78448;SHT31;67742;51.972;5.682;2023-03-14T09:50:55;9.1;64.3
78448;SHT31;67742;51.972;5.682;2023-03-14T09:53:34;9.2;63.6
78448;SHT31;67742;51.972;5.682;2023-03-14T09:56:13;9.2;64.5
78448;SHT31;67742;51.972;5.682;2023-03-14T09:58:50;9.2;63.2
78448;SHT31;67742;51.972;5.682;2023-03-14T10:01:25;9.2;63.8
78448;SHT31;67742;51.972;5.682;2023-03-14T10:03:58;9.3;62.3
78448;SHT31;67742;51.972;5.682;2023-03-14T10:06:41;9.3;64.0
78448;SHT31;67742;51.972;5.682;2023-03-14T10:09:18;9.4;64.4
78448;SHT31;67742;51.972;5.682;2023-03-14T10:11:58;9.5;63.0
78448;SHT31;67742;51.972;5.682;2023-03-14T10:14:34;9.5;60.9
78448;SHT31;67742;51.972;5.682;2023-03-14T10:17:14;9.6;60.2
78448;SHT31;67742;51.972;5.682;2023-03-14T10:19:56;9.6;60.3
78448;SHT31;67742;51.972;5.682;2023-03-14T10:22:30;9.7;59.8
78448;SHT31;67742;51.972;5.682;2023-03-14T10:25:04;9.7;59.0
78448;SHT31;67742;51.972;5.682;2023-03-14T10:27:41;9.7;59.1
78448;SHT31;67742;51.972;5.682;2023-03-14T10:30:32;9.7;59.6
78448;SHT31;67742;51.972;5.682;2023-03-14T10:33:21;9.7;60.4
78448;SHT31;67742;51.972;5.682;2023-03-14T10:35:58;9.7;59.9
78448;SHT31;67742;51.972;5.682;2023-03-14T10:38:31;9.7;59.3
78448;SHT31;67742;51.972;5.682;2023-03-14T10:41:17;9.7;60.4
78448;SHT31;67742;51.972;5.682;2023-03-14T10:43:50;9.7;59.8
78448;SHT31;67742;51.972;5.682;2023-03-14T10:46:25;9.8;58.9
78448;SHT31;67742;51.972;5.682;2023-03-14T10:48:57;9.8;59.2
78448;SHT31;67742;51.972;5.682;2023-03-14T10:51:30;9.8;60.7
78448;SHT31;67742;51.972;5.682;2023-03-14T10:54:02;9.7;58.5
78448;SHT31;67742;51.972;5.682;2023-03-14T10:56:36;9.6;58.9
78448;SHT31;67742;51.972;5.682;2023-03-14T10:59:13;9.5;59.1
78448;SHT31;67742;51.972;5.682;2023-03-14T11:01:59;9.4;61.9
78448;SHT31;67742;51.972;5.682;2023-03-14T11:04:49;9.4;61.2
78448;SHT31;67742;51.972;5.682;2023-03-14T11:07:28;9.4;62.6
78448;SHT31;67742;51.972;5.682;2023-03-14T11:10:11;9.4;62.2
78448;SHT31;67742;51.972;5.682;2023-03-14T11:12:52;9.4;60.5
78448;SHT31;67742;51.972;5.682;2023-03-14T11:15:36;9.4;61.4
78448;SHT31;67742;51.972;5.682;2023-03-14T11:21:22;9.5;59.1
78448;SHT31;67742;51.972;5.682;2023-03-14T11:24:12;9.5;60.5
78448;SHT31;67742;51.972;5.682;2023-03-14T11:27:21;9.5;56.8
78448;SHT31;67742;51.972;5.682;2023-03-14T11:31:53;9.5;56.8
78448;SHT31;67742;51.972;5.682;2023-03-14T11:34:38;9.5;57.4
78448;SHT31;67742;51.972;5.682;2023-03-14T11:37:18;9.5;56.5
78448;SHT31;67742;51.972;5.682;2023-03-14T11:39:59;9.6;57.1
78448;SHT31;67742;51.972;5.682;2023-03-14T11:42:33;9.8;56.1
78448;SHT31;67742;51.972;5.682;2023-03-14T11:45:10;9.9;53.7
78448;SHT31;67742;51.972;5.682;2023-03-14T11:47:53;10.1;53.7
78448;SHT31;67742;51.972;5.682;2023-03-14T11:50:30;10.2;53.6
78448;SHT31;67742;51.972;5.682;2023-03-14T11:53:11;10.3;52.3
78448;SHT31;67742;51.972;5.682;2023-03-14T11:55:43;10.3;52.3
78448;SHT31;67742;51.972;5.682;2023-03-14T11:58:20;10.4;52.4
78448;SHT31;67742;51.972;5.682;2023-03-14T12:00:57;10.4;49.8
78448;SHT31;67742;51.972;5.682;2023-03-14T12:03:39;10.4;48.7
78448;SHT31;67742;51.972;5.682;2023-03-14T12:06:26;10.4;48.6
78448;SHT31;67742;51.972;5.682;2023-03-14T12:09:00;10.3;48.7
78448;SHT31;67742;51.972;5.682;2023-03-14T12:11:40;10.3;47.9
78448;SHT31;67742;51.972;5.682;2023-03-14T12:14:27;10.3;47.5
78448;SHT31;67742;51.972;5.682;2023-03-14T12:17:06;10.2;45.8
78448;SHT31;67742;51.972;5.682;2023-03-14T12:19:42;10.2;46.2
78448;SHT31;67742;51.972;5.682;2023-03-14T12:22:27;10.2;48.4
78448;SHT31;67742;51.972;5.682;2023-03-14T12:25:03;10.2;48.1
78448;SHT31;67742;51.972;5.682;2023-03-14T12:28:13;10.2;46.9
78448;SHT31;67742;51.972;5.682;2023-03-14T12:30:50;10.3;46.4
78448;SHT31;67742;51.972;5.682;2023-03-14T12:33:34;10.3;45.4
78448;SHT31;67742;51.972;5.682;2023-03-14T12:36:15;10.3;44.1
78448;SHT31;67742;51.972;5.682;2023-03-14T12:39:03;10.3;45.3
78448;SHT31;67742;51.972;5.682;2023-03-14T12:41:43;10.3;43.8
78448;SHT31;67742;51.972;5.682;2023-03-14T12:44:49;10.4;42.6
78448;SHT31;67742;51.972;5.682;2023-03-14T12:48:21;10.4;41.6
78448;SHT31;67742;51.972;5.682;2023-03-14T12:51:11;10.4;43.0
78448;SHT31;67742;51.972;5.682;2023-03-14T12:54:42;10.5;42.1
78448;SHT31;67742;51.972;5.682;2023-03-14T12:57:27;10.5;39.3
78448;SHT31;67742;51.972;5.682;2023-03-14T12:59:58;10.5;40.5
78448;SHT31;67742;51.972;5.682;2023-03-14T13:02:40;10.5;41.0
78448;SHT31;67742;51.972;5.682;2023-03-14T13:05:16;10.5;42.1
78448;SHT31;67742;51.972;5.682;2023-03-14T13:08:11;10.5;43.5
78448;SHT31;67742;51.972;5.682;2023-03-14T13:10:49;10.6;42.8
78448;SHT31;67742;51.972;5.682;2023-03-14T13:13:26;10.6;42.5
78448;SHT31;67742;51.972;5.682;2023-03-14T13:16:03;10.7;42.3
78448;SHT31;67742;51.972;5.682;2023-03-14T13:18:40;10.7;40.8
78448;SHT31;67742;51.972;5.682;2023-03-14T13:21:16;10.8;38.7
78448;SHT31;67742;51.972;5.682;2023-03-14T13:23:59;10.8;38.5
78448;SHT31;67742;51.972;5.682;2023-03-14T13:26:37;10.8;38.5
78448;SHT31;67742;51.972;5.682;2023-03-14T13:29:16;10.8;39.2
78448;SHT31;67742;51.972;5.682;2023-03-14T13:31:51;10.8;39.5
78448;SHT31;67742;51.972;5.682;2023-03-14T13:34:25;10.8;39.3
78448;SHT31;67742;51.972;5.682;2023-03-14T13:37:02;10.7;38.0
78448;SHT31;67742;51.972;5.682;2023-03-14T13:39:32;10.7;39.0
78448;SHT31;67742;51.972;5.682;2023-03-14T13:42:03;10.7;38.2
78448;SHT31;67742;51.972;5.682;2023-03-14T13:44:36;10.7;38.1
78448;SHT31;67742;51.972;5.682;2023-03-14T13:47:15;10.7;39.4
78448;SHT31;67742;51.972;5.682;2023-03-14T13:49:49;10.7;38.8
78448;SHT31;67742;51.972;5.682;2023-03-14T13:52:31;10.7;38.9
78448;SHT31;67742;51.972;5.682;2023-03-14T13:55:05;10.6;38.4
78448;SHT31;67742;51.972;5.682;2023-03-14T13:57:51;10.6;37.1
78448;SHT31;67742;51.972;5.682;2023-03-14T14:00:28;10.6;37.1
78448;SHT31;67742;51.972;5.682;2023-03-14T14:03:11;10.5;37.2
78448;SHT31;67742;51.972;5.682;2023-03-14T14:05:48;10.5;37.1
78448;SHT31;67742;51.972;5.682;2023-03-14T14:08:26;10.5;36.6
78448;SHT31;67742;51.972;5.682;2023-03-14T14:11:09;10.4;38.4
78448;SHT31;67742;51.972;5.682;2023-03-14T14:13:44;10.4;38.2
78448;SHT31;67742;51.972;5.682;2023-03-14T14:16:21;10.4;38.3
78448;SHT31;67742;51.972;5.682;2023-03-14T14:18:56;10.3;38.6
78448;SHT31;67742;51.972;5.682;2023-03-14T14:21:30;10.4;37.6
78448;SHT31;67742;51.972;5.682;2023-03-14T14:24:09;10.4;36.7
78448;SHT31;67742;51.972;5.682;2023-03-14T14:26:47;10.3;36.8
78448;SHT31;67742;51.972;5.682;2023-03-14T14:29:26;10.3;37.5
78448;SHT31;67742;51.972;5.682;2023-03-14T14:32:17;10.3;38.5
78448;SHT31;67742;51.972;5.682;2023-03-14T14:34:59;10.2;39.2
78448;SHT31;67742;51.972;5.682;2023-03-14T14:37:34;10.2;38.6
78448;SHT31;67742;51.972;5.682;2023-03-14T14:40:14;10.2;38.8
78448;SHT31;67742;51.972;5.682;2023-03-14T14:42:46;10.2;39.7
78448;SHT31;67742;51.972;5.682;2023-03-14T14:45:25;10.2;40.7
78448;SHT31;67742;51.972;5.682;2023-03-14T14:48:13;10.2;41.0
78448;SHT31;67742;51.972;5.682;2023-03-14T14:50:56;10.2;40.8
78448;SHT31;67742;51.972;5.682;2023-03-14T14:53:38;10.1;40.8
78448;SHT31;67742;51.972;5.682;2023-03-14T14:56:16;10.1;40.5
78448;SHT31;67742;51.972;5.682;2023-03-14T14:58:55;10.1;39.7
78448;SHT31;67742;51.972;5.682;2023-03-14T15:01:34;10.1;39.3
78448;SHT31;67742;51.972;5.682;2023-03-14T15:04:11;10.1;39.0
78448;SHT31;67742;51.972;5.682;2023-03-14T15:06:48;10.0;38.4
78448;SHT31;67742;51.972;5.682;2023-03-14T15:09:21;10.0;38.1
78448;SHT31;67742;51.972;5.682;2023-03-14T15:12:00;10.0;38.4
78448;SHT31;67742;51.972;5.682;2023-03-14T15:14:33;9.9;37.9
78448;SHT31;67742;51.972;5.682;2023-03-14T15:17:15;9.9;37.5
78448;SHT31;67742;51.972;5.682;2023-03-14T15:19:50;9.9;38.1
78448;SHT31;67742;51.972;5.682;2023-03-14T15:22:24;9.9;38.2
78448;SHT31;67742;51.972;5.682;2023-03-14T15:24:57;9.9;38.4
78448;SHT31;67742;51.972;5.682;2023-03-14T15:27:31;9.9;38.7
78448;SHT31;67742;51.972;5.682;2023-03-14T15:30:18;9.9;39.6
78448;SHT31;67742;51.972;5.682;2023-03-14T15:32:59;10.1;39.1
78448;SHT31;67742;51.972;5.682;2023-03-14T15:35:30;10.1;38.4
78448;SHT31;67742;51.972;5.682;2023-03-14T15:38:02;10.2;36.9
78448;SHT31;67742;51.972;5.682;2023-03-14T15:40:32;10.2;37.2
78448;SHT31;67742;51.972;5.682;2023-03-14T15:43:05;10.2;37.0
78448;SHT31;67742;51.972;5.682;2023-03-14T15:45:37;10.1;37.3
78448;SHT31;67742;51.972;5.682;2023-03-14T15:48:15;10.1;37.4
78448;SHT31;67742;51.972;5.682;2023-03-14T15:50:50;10.1;37.2
78448;SHT31;67742;51.972;5.682;2023-03-14T15:53:23;10.0;37.9
78448;SHT31;67742;51.972;5.682;2023-03-14T15:57:31;10.0;37.9
78448;SHT31;67742;51.972;5.682;2023-03-14T16:00:16;9.9;38.7
78448;SHT31;67742;51.972;5.682;2023-03-14T16:02:52;9.9;38.4
78448;SHT31;67742;51.972;5.682;2023-03-14T16:05:22;9.9;38.4
78448;SHT31;67742;51.972;5.682;2023-03-14T16:07:52;9.9;37.4
78448;SHT31;67742;51.972;5.682;2023-03-14T16:10:23;9.9;37.2
78448;SHT31;67742;51.972;5.682;2023-03-14T16:12:56;9.8;37.0
78448;SHT31;67742;51.972;5.682;2023-03-14T16:15:41;9.8;37.3
78448;SHT31;67742;51.972;5.682;2023-03-14T16:18:16;9.7;37.7
78448;SHT31;67742;51.972;5.682;2023-03-14T16:21:05;9.7;37.9
78448;SHT31;67742;51.972;5.682;2023-03-14T16:23:52;9.7;37.7
78448;SHT31;67742;51.972;5.682;2023-03-14T16:26:26;9.6;38.1
78448;SHT31;67742;51.972;5.682;2023-03-14T16:29:15;9.6;38.4
78448;SHT31;67742;51.972;5.682;2023-03-14T16:31:57;9.6;37.6
78448;SHT31;67742;51.972;5.682;2023-03-14T16:34:37;9.5;38.2
78448;SHT31;67742;51.972;5.682;2023-03-14T16:37:13;9.5;38.4
78448;SHT31;67742;51.972;5.682;2023-03-14T16:39:48;9.5;38.1
78448;SHT31;67742;51.972;5.682;2023-03-14T16:42:21;9.5;38.2
78448;SHT31;67742;51.972;5.682;2023-03-14T16:44:51;9.5;38.2
78448;SHT31;67742;51.972;5.682;2023-03-14T16:47:21;9.5;38.5
78448;SHT31;67742;51.972;5.682;2023-03-14T16:49:57;9.4;38.6
78448;SHT31;67742;51.972;5.682;2023-03-14T16:52:48;9.4;38.5
78448;SHT31;67742;51.972;5.682;2023-03-14T16:55:21;9.4;39.0
78448;SHT31;67742;51.972;5.682;2023-03-14T16:57:52;9.4;39.1
78448;SHT31;67742;51.972;5.682;2023-03-14T17:00:26;9.5;38.8
78448;SHT31;67742;51.972;5.682;2023-03-14T17:02:58;9.5;39.4
78448;SHT31;67742;51.972;5.682;2023-03-14T17:05:29;9.5;39.9
78448;SHT31;67742;51.972;5.682;2023-03-14T17:07:59;9.5;40.1
78448;SHT31;67742;51.972;5.682;2023-03-14T17:10:40;9.5;40.5
78448;SHT31;67742;51.972;5.682;2023-03-14T17:13:21;9.5;40.9
78448;SHT31;67742;51.972;5.682;2023-03-14T17:15:54;9.5;40.8